createdAt,value
2019-03-30T00:04:50.913Z,143065.55
2019-03-30T00:09:47.220Z,143154.50
2019-03-30T00:14:43.238Z,143011.72
2019-03-30T00:19:40.092Z,143074.91
2019-03-30T00:24:36.743Z,143040.95
2019-03-30T00:29:32.675Z,142985.94
2019-03-30T00:34:28.592Z,143032.75
2019-03-30T00:39:24.509Z,143105.31
2019-03-30T00:44:20.421Z,143032.75
2019-03-30T00:49:16.331Z,142946.19
2019-03-30T00:54:15.912Z,142900.55
2019-03-30T00:59:11.933Z,142860.77
2019-03-30T01:04:07.842Z,142798.78
2019-03-30T01:09:05.502Z,142792.97
2019-03-30T01:14:01.415Z,142759.06
2019-03-30T01:18:57.351Z,142798.78
2019-03-30T01:23:53.941Z,142822.19
2019-03-30T01:28:49.878Z,142780.06
2019-03-30T01:33:45.786Z,142784.77
2019-03-30T01:38:41.695Z,142886.48
2019-03-30T01:43:37.608Z,142887.69
2019-03-30T01:48:33.578Z,142759.06
2019-03-30T01:53:29.457Z,142707.55
2019-03-30T01:58:25.395Z,142677.19
2019-03-30T02:03:21.305Z,142665.48
2019-03-30T02:08:17.218Z,142665.48
2019-03-30T02:13:13.150Z,142639.78
2019-03-30T02:18:09.161Z,142602.39
2019-03-30T02:23:05.276Z,142605.89
2019-03-30T02:28:01.187Z,142602.39
2019-03-30T02:32:57.199Z,142584.84
2019-03-30T02:37:53.111Z,142579.00
2019-03-30T02:42:49.027Z,142596.55
2019-03-30T02:47:44.946Z,142595.34
2019-03-30T02:52:40.876Z,142607.05
2019-03-30T02:57:36.813Z,142723.94
2019-03-30T03:02:32.807Z,142787.13
2019-03-30T03:07:28.729Z,142764.91
2019-03-30T03:12:24.641Z,142757.86
2019-03-30T03:17:20.561Z,142747.34
2019-03-30T03:22:16.488Z,142618.73
2019-03-30T03:27:12.371Z,142720.41
2019-03-30T03:32:08.309Z,142621.09
2019-03-30T03:37:04.260Z,142653.78
2019-03-30T03:42:00.259Z,142583.69
2019-03-30T03:46:56.190Z,142623.39
2019-03-30T03:51:52.179Z,142665.48
2019-03-30T03:56:48.219Z,142581.34
2019-03-30T04:01:45.564Z,142527.61
2019-03-30T04:06:43.398Z,142494.89
2019-03-30T04:11:39.409Z,142586.00
2019-03-30T04:16:35.322Z,142581.34
2019-03-30T04:21:43.859Z,142469.19
2019-03-30T04:26:29.135Z,142449.36
2019-03-30T04:31:25.062Z,142407.30
2019-03-30T04:36:21.025Z,142500.73
2019-03-30T04:41:16.918Z,142575.50
2019-03-30T04:46:12.927Z,142546.31
2019-03-30T04:51:08.851Z,142441.17
2019-03-30T04:56:04.908Z,142462.20
2019-03-30T05:01:00.860Z,142550.95
2019-03-30T05:05:56.785Z,142438.81
2019-03-30T05:10:52.698Z,142471.55
2019-03-30T05:15:48.715Z,142493.73
2019-03-30T05:20:44.623Z,142450.52
2019-03-30T05:25:40.885Z,142461.00
2019-03-30T05:30:38.201Z,142527.61
2019-03-30T05:35:34.975Z,142747.34
2019-03-30T05:40:31.235Z,143049.13
2019-03-30T05:45:27.194Z,143482.56
2019-03-30T05:50:23.102Z,143676.05
2019-03-30T05:55:19.018Z,143972.97
2019-03-30T06:00:17.236Z,144283.16
2019-03-30T06:05:13.279Z,144450.16
2019-03-30T06:10:09.498Z,144512.50
2019-03-30T06:15:12.431Z,144521.91
2019-03-30T06:20:11.460Z,144666.62
2019-03-30T06:25:09.378Z,144830.30
2019-03-30T06:30:17.964Z,144880.92
2019-03-30T06:35:14.063Z,144846.77
2019-03-30T06:40:12.043Z,144697.23
2019-03-30T06:45:11.393Z,144556.03
2019-03-30T06:50:11.415Z,144414.84
2019-03-30T06:55:09.607Z,144329.03
2019-03-30T07:00:09.202Z,144327.81
2019-03-30T07:05:09.580Z,144366.66
2019-03-30T07:10:06.194Z,144428.97
2019-03-30T07:15:02.827Z,144447.78
2019-03-30T07:20:00.959Z,144486.62
2019-03-30T07:24:57.503Z,144499.56
2019-03-30T07:29:53.632Z,144511.33
2019-03-30T07:34:51.465Z,144596.00
2019-03-30T07:39:48.571Z,144610.14
2019-03-30T07:44:44.602Z,144633.64
2019-03-30T07:49:40.531Z,144674.87
2019-03-30T07:54:38.051Z,144751.41
2019-03-30T07:59:33.951Z,144772.63
2019-03-30T08:04:29.865Z,144772.63
2019-03-30T08:09:25.873Z,144836.19
2019-03-30T08:14:21.786Z,144909.19
2019-03-30T08:19:17.697Z,145027.02
2019-03-30T08:24:15.740Z,144956.30
2019-03-30T08:29:14.807Z,145034.13
2019-03-30T08:34:10.806Z,144928.03
2019-03-30T08:39:06.714Z,144840.87
2019-03-30T08:44:02.755Z,145015.27
2019-03-30T08:48:58.667Z,145128.39
2019-03-30T08:53:55.186Z,145233.34
2019-03-30T08:58:51.227Z,144944.52
2019-03-30T09:03:50.351Z,145045.86
2019-03-30T09:08:46.257Z,145111.86
2019-03-30T09:13:42.410Z,145221.48
2019-03-30T09:18:38.356Z,145190.83
2019-03-30T09:23:34.289Z,145192.03
2019-03-30T09:28:30.608Z,145175.50
2019-03-30T09:33:26.531Z,145333.58
2019-03-30T09:38:22.452Z,145482.25
2019-03-30T09:43:18.377Z,145420.83
2019-03-30T09:48:16.779Z,145485.78
2019-03-30T09:53:12.688Z,145463.38
2019-03-30T09:58:09.043Z,145400.78
2019-03-30T10:03:06.268Z,145599.08
2019-03-30T10:08:03.493Z,145571.91
2019-03-30T10:12:59.624Z,145377.17
2019-03-30T10:17:55.584Z,145496.37
2019-03-30T10:22:52.746Z,145758.48
2019-03-30T10:27:48.659Z,145850.59
2019-03-30T10:32:44.577Z,145825.83
2019-03-30T10:37:40.486Z,145512.89
2019-03-30T10:42:39.173Z,145574.28
2019-03-30T10:47:35.269Z,145765.55
2019-03-30T10:52:31.179Z,145923.92
2019-03-30T10:57:27.115Z,145981.81
2019-03-30T11:02:23.036Z,145703.00
2019-03-30T11:07:18.957Z,145877.78
2019-03-30T11:12:14.966Z,145616.75
2019-03-30T11:17:10.880Z,145654.53
2019-03-30T11:22:06.786Z,145832.91
2019-03-30T11:27:02.902Z,145607.31
2019-03-30T11:31:58.814Z,145555.41
2019-03-30T11:36:54.726Z,145623.87
2019-03-30T11:41:50.642Z,145610.84
2019-03-30T11:46:46.555Z,145734.88
2019-03-30T11:51:42.469Z,145801.02
2019-03-30T11:56:38.408Z,145893.19
2019-03-30T12:01:34.923Z,145711.25
2019-03-30T12:06:30.832Z,145685.28
2019-03-30T12:11:26.749Z,145812.80
2019-03-30T12:16:22.664Z,145837.61
2019-03-30T12:21:18.570Z,146022.00
2019-03-30T12:26:14.486Z,145984.19
2019-03-30T12:31:10.395Z,145912.09
2019-03-30T12:36:06.376Z,146025.53
2019-03-30T12:41:02.281Z,146006.63
2019-03-30T12:45:58.195Z,146085.81
2019-03-30T12:50:54.278Z,145902.64
2019-03-30T12:55:50.226Z,146070.44
2019-03-30T13:00:46.641Z,145978.27
2019-03-30T13:05:42.552Z,146079.91
2019-03-30T13:10:38.462Z,145925.09
2019-03-30T13:15:34.475Z,145758.48
2019-03-30T13:20:30.410Z,145848.27
2019-03-30T13:25:27.519Z,145720.69
2019-03-30T13:30:23.491Z,145831.69
2019-03-30T13:35:19.436Z,145932.16
2019-03-30T13:40:15.353Z,145819.91
2019-03-30T13:45:11.365Z,145829.36
2019-03-30T13:50:07.674Z,145878.94
2019-03-30T13:55:09.509Z,145886.06
2019-03-30T14:00:06.646Z,145772.67
2019-03-30T14:05:04.056Z,145834.06
2019-03-30T14:09:59.981Z,145744.33
2019-03-30T14:14:57.125Z,145734.88
2019-03-30T14:19:53.463Z,145855.34
2019-03-30T14:24:50.067Z,145815.17
2019-03-30T14:29:48.759Z,145682.91
2019-03-30T14:34:44.677Z,145763.22
2019-03-30T14:39:40.589Z,145739.59
2019-03-30T14:44:36.497Z,145838.81
2019-03-30T14:49:32.493Z,145848.27
2019-03-30T14:54:35.310Z,145850.59
2019-03-30T14:59:31.401Z,145827.00
2019-03-30T15:04:27.309Z,145720.69
2019-03-30T15:09:23.289Z,145734.88
2019-03-30T15:14:19.238Z,145661.64
2019-03-30T15:19:15.159Z,145645.08
2019-03-30T15:24:16.285Z,145626.19
2019-03-30T15:29:12.254Z,145671.09
2019-03-30T15:34:08.265Z,145620.28
2019-03-30T15:39:05.532Z,145616.75
2019-03-30T15:44:01.846Z,145543.59
2019-03-30T15:48:59.060Z,145584.89
2019-03-30T15:53:56.197Z,145569.53
2019-03-30T15:58:52.138Z,145536.52
2019-03-30T16:03:48.050Z,145538.89
2019-03-30T16:08:43.966Z,145517.64
2019-03-30T16:13:39.879Z,145465.69
2019-03-30T16:18:35.795Z,145453.88
2019-03-30T16:23:31.705Z,145463.38
2019-03-30T16:28:27.617Z,145461.00
2019-03-30T16:33:23.531Z,145457.42
2019-03-30T16:38:19.570Z,145495.22
2019-03-30T16:43:15.478Z,145562.47
2019-03-30T16:48:14.597Z,145517.64
2019-03-30T16:53:09.199Z,145486.94
2019-03-30T16:58:05.139Z,145485.78
2019-03-30T17:03:02.055Z,145566.00
2019-03-30T17:07:57.969Z,145556.56
2019-03-30T17:12:53.883Z,145584.89
2019-03-30T17:17:49.810Z,145661.64
2019-03-30T17:22:45.698Z,145505.83
2019-03-30T17:27:41.611Z,145472.81
2019-03-30T17:32:37.621Z,145444.44
2019-03-30T17:37:33.538Z,145306.44
2019-03-30T17:42:29.476Z,145274.59
2019-03-30T17:47:25.382Z,145206.16
2019-03-30T17:52:21.294Z,145192.03
2019-03-30T17:57:17.747Z,145170.80
2019-03-30T18:02:13.855Z,145154.31
2019-03-30T18:07:13.429Z,145123.66
2019-03-30T18:12:08.391Z,145084.78
2019-03-30T18:17:04.540Z,145095.37
2019-03-30T18:22:00.547Z,145057.66
2019-03-30T18:26:56.542Z,144924.50
2019-03-30T18:31:53.568Z,144793.77
2019-03-30T18:36:49.780Z,144660.73
2019-03-30T18:41:45.787Z,144563.08
2019-03-30T18:46:41.699Z,144494.83
2019-03-30T18:51:40.618Z,144424.28
2019-03-30T18:56:36.553Z,144330.19
2019-03-30T19:01:32.467Z,144290.20
2019-03-30T19:06:28.384Z,144236.16
2019-03-30T19:11:24.303Z,144229.11
2019-03-30T19:16:20.226Z,144309.02
2019-03-30T19:21:16.136Z,144124.52
2019-03-30T19:26:12.055Z,144190.31
2019-03-30T19:31:07.970Z,144193.87
2019-03-30T19:36:03.890Z,144192.66
2019-03-30T19:40:59.906Z,144123.34
2019-03-30T19:45:55.823Z,144045.77
2019-03-30T19:50:51.739Z,143933.03
2019-03-30T19:55:47.682Z,143855.59
2019-03-30T20:00:43.608Z,143775.78
2019-03-30T20:05:39.525Z,143775.78
2019-03-30T20:10:35.546Z,143787.53
2019-03-30T20:15:31.596Z,143745.31
2019-03-30T20:20:27.506Z,143759.36
2019-03-30T20:25:26.026Z,143765.23
2019-03-30T20:30:24.374Z,143744.09
2019-03-30T20:35:20.213Z,143829.80
2019-03-30T20:40:16.151Z,143890.81
2019-03-30T20:45:13.673Z,143884.94
2019-03-30T20:50:09.711Z,143782.84
2019-03-30T20:55:06.542Z,143643.19
2019-03-30T21:00:05.657Z,143581.03
2019-03-30T21:05:01.785Z,143557.59
2019-03-30T21:09:57.702Z,143718.27
2019-03-30T21:14:53.640Z,143684.23
2019-03-30T21:19:50.674Z,143582.22
2019-03-30T21:24:47.346Z,143602.16
2019-03-30T21:29:54.651Z,143656.08
2019-03-30T21:34:44.826Z,143670.19
2019-03-30T21:39:40.751Z,143616.25
2019-03-30T21:44:36.657Z,143674.84
2019-03-30T21:49:32.575Z,143631.44
2019-03-30T21:54:34.561Z,143686.59
2019-03-30T21:59:30.605Z,143775.78
2019-03-30T22:04:26.513Z,143774.63
2019-03-30T22:09:22.441Z,143928.38
2019-03-30T22:14:18.441Z,143933.03
2019-03-30T22:19:14.351Z,144024.66
2019-03-30T22:24:16.122Z,144045.77
2019-03-30T22:29:12.131Z,144015.27
2019-03-30T22:34:08.051Z,143998.80
2019-03-30T22:39:05.159Z,143981.22
2019-03-30T22:44:01.183Z,143982.38
2019-03-30T22:48:57.185Z,143926.00
2019-03-30T22:53:53.680Z,143808.66
2019-03-30T22:58:49.618Z,143717.11
2019-03-30T23:03:45.634Z,143726.48
2019-03-30T23:08:41.554Z,143638.52
2019-03-30T23:13:38.204Z,143595.13
2019-03-30T23:18:34.227Z,143611.53
2019-03-30T23:23:30.140Z,143564.63
2019-03-30T23:28:26.054Z,143477.86
2019-03-30T23:33:22.035Z,143536.48
2019-03-30T23:38:17.943Z,143601.00
2019-03-30T23:43:13.854Z,143527.09
2019-03-30T23:48:09.771Z,143589.25
2019-03-30T23:53:07.424Z,143576.36
2019-03-30T23:58:04.887Z,143571.66
